Latest Weather Observations for Fortescue Dave Forrest

IDW60801

Issued at 10:05 pm WST Friday 1 August 2014 (issued every 30 minutes, with the page automatically refreshed every 10 minutes)

About weather observations | Map of weather stations | Latest weather observations for WA | Other Formats
Station Details ID: 505056 Name: FORTESCUE DAVE FORREST Lat: -22.29 Lon: 119.43 Height: 474.6 m
Data from the previous 72 hours. | See also: Recent months for locations in Western Australia
Date/Time
WST
Temp
°C
App
Temp
°C
Dew
Point
Rel
Hum
%
Delta-T
°C
Wind Press
QNH
hPa
Press
MSL
hPa
Rain
since 9 am
mm
Dir
 
Spd
km/h
Gust
km/h
Spd
kts
Gust
kts
01/10:00pm 17.2 15.9 6.1 48 5.5 ENE 2 4 1 2 1021.4 1020.3 0.0
01/09:30pm 17.3 15.6 6.0 47 5.6 E 4 7 2 4 1021.3 - 0.0
01/09:00pm 17.1 16.0 7.0 51 5.1 E 2 2 1 1 1021.2 1020.1 0.0
01/08:30pm 17.8 16.7 6.7 48 5.7 ENE 2 4 1 2 1021.2 - 0.0
01/08:00pm 18.7 16.8 5.1 40 6.7 E 4 6 2 3 1020.9 1019.8 0.0
01/07:30pm 19.5 18.2 5.8 40 6.9 ESE 2 4 1 2 1020.8 - 0.0
01/07:00pm 20.2 18.7 4.8 36 7.7 ENE 2 4 1 2 1020.5 1019.3 0.0
01/06:30pm 22.1 19.9 3.4 29 9.2 E 4 4 2 2 1020.3 - 0.0
01/06:00pm 22.6 19.7 2.5 26 9.7 - 7 7 4 4 1019.9 1018.8 0.0
01/05:30pm 23.7 20.4 2.7 25 10.3 SSE 9 13 5 7 1019.7 - 0.0
01/05:00pm 25.3 21.6 2.1 22 11.4 SSE 11 17 6 9 1019.5 1018.4 0.0
01/04:30pm 25.8 21.7 2.1 21 11.7 SSE 13 22 7 12 1019.3 - 0.0
01/04:00pm 26.1 21.6 2.1 21 11.8 SSE 15 22 8 12 1019.1 1018.0 0.0
01/03:30pm 26.3 22.7 2.7 21 11.8 SSE 11 20 6 11 1018.9 - 0.0
01/03:00pm 26.3 22.9 2.1 20 11.9 SE 9 19 5 10 1018.8 1017.7 0.0
01/02:30pm 26.5 23.6 2.6 21 11.9 ESE 7 15 4 8 1019.0 - 0.0
01/02:00pm 26.0 22.7 2.3 21 11.7 SE 9 20 5 11 1019.2 1018.1 0.0
01/01:30pm 25.8 22.6 3.1 23 11.4 SE 9 15 5 8 1019.4 - 0.0
01/01:00pm 25.3 21.4 3.4 24 11.0 ESE 13 20 7 11 1019.9 1018.8 0.0
01/12:30pm 24.5 21.4 3.8 26 10.4 E 9 20 5 11 1020.7 - 0.0
01/12:00pm 24.2 20.5 4.4 27 10.0 SE 13 20 7 11 1021.2 1020.1 0.0
01/11:30am 23.1 19.0 4.3 29 9.5 SE 15 26 8 14 1021.7 - 0.0
01/11:00am 22.2 18.3 5.4 33 8.6 SSE 15 24 8 13 1022.0 1020.9 0.0
01/10:30am 20.9 17.4 5.5 36 7.8 SSE 13 20 7 11 1022.5 - 0.0
01/10:00am 20.2 16.7 5.5 38 7.4 SE 13 24 7 13 1022.7 1021.6 0.0
01/09:30am 18.6 14.6 5.0 40 6.7 SE 15 20 8 11 1022.6 - 0.0
01/09:00am 17.5 13.5 5.0 43 6.1 SE 15 20 8 11 1022.4 1021.3 0.0
01/08:30am 16.1 12.1 4.7 46 5.5 SE 15 20 8 11 1022.0 - 0.0
01/08:00am 14.9 11.6 4.3 49 5.0 SSE 11 17 6 9 1021.8 1020.7 0.0
01/07:30am 14.0 11.4 4.3 52 4.6 SSE 7 17 4 9 1021.6 - 0.0
01/07:00am 13.3 10.4 4.5 55 4.1 SSE 9 15 5 8 1021.2 1020.5 0.0
01/06:30am 13.0 10.1 4.5 56 4.0 SSE 9 13 5 7 1020.9 - 0.0
01/06:00am 13.9 10.2 4.4 52 4.5 SE 13 17 7 9 1020.5 1019.8 0.0
01/05:30am 13.6 10.7 4.7 55 4.2 SE 9 13 5 7 1020.2 - 0.0
01/05:00am 13.7 11.2 5.0 55 4.1 SE 7 9 4 5 1019.9 1019.2 0.0
01/04:30am 14.6 11.6 6.1 56 4.2 SSE 11 15 6 8 1019.8 - 0.0
01/04:00am 14.8 12.7 5.9 55 4.4 SW 6 7 3 4 1019.5 1018.8 0.0
01/03:30am 16.2 14.1 5.9 50 5.1 ESE 6 9 3 5 1019.4 - 0.0
01/03:00am 16.5 14.7 5.5 48 5.4 SSE 4 7 2 4 1019.4 1018.7 0.0
01/02:30am 18.4 15.1 4.5 40 6.8 SE 11 17 6 9 1019.6 - 0.0
01/02:00am 19.1 15.6 3.7 36 7.4 E 11 17 6 9 1019.5 1018.8 0.0
01/01:30am 19.3 15.5 3.8 36 7.5 E 13 17 7 9 1019.7 - 0.0
01/01:00am 19.6 15.4 3.8 35 7.7 E 15 20 8 11 1019.8 1019.1 0.0
01/12:30am 18.7 15.9 5.1 40 6.8 ENE 9 13 5 7 1020.0 - 0.0
01/12:00am 18.7 16.5 5.5 42 6.6 E 6 7 3 4 1020.3 1019.6 0.0
 
Date/Time
WST
Temp
°C
App
Temp
°C
Dew
Point
Rel
Hum
%
Delta-T
°C
Wind Press
QNH
hPa
Press
MSL
hPa
Rain
since 9 am
mm
Dir
 
Spd
km/h
Gust
km/h
Spd
kts
Gust
kts
31/11:30pm 19.2 16.7 4.5 38 7.2 SE 7 9 4 5 1020.4 - 0.0
31/11:00pm 20.4 17.1 4.7 35 7.8 E 11 17 6 9 1020.5 1019.8 0.0
31/10:30pm 19.1 18.0 6.8 44 6.3 SSE 2 6 1 3 1020.6 - 0.0
31/10:00pm 19.5 17.5 6.4 42 6.7 E 6 7 3 4 1020.5 1019.8 0.0
31/09:30pm 19.6 17.9 5.7 40 7.0 SE 4 7 2 4 1020.6 - 0.0
31/09:00pm 20.6 18.8 5.2 36 7.7 E 4 6 2 3 1020.4 1019.7 0.0
31/08:30pm 20.0 19.3 7.0 43 6.8 CALM 0 4 0 2 1020.3 - 0.0
31/08:00pm 19.8 18.7 7.1 43 6.6 NNE 2 4 1 2 1020.0 1019.4 0.0
31/07:30pm 20.2 19.3 7.6 44 6.6 WSW 2 4 1 2 1019.8 - 0.0
31/07:00pm 20.7 19.8 7.7 43 6.9 WSW 2 2 1 1 1019.5 1018.8 0.0
31/06:30pm 22.6 20.6 4.3 30 9.2 SE 4 6 2 3 1019.3 - 0.0
31/06:00pm 23.7 20.8 2.7 25 10.3 SSE 7 7 4 4 1019.1 1018.4 0.0
31/05:30pm 24.3 21.6 2.7 24 10.6 S 6 7 3 4 1019.0 - 0.0
31/05:00pm 24.8 22.5 2.8 24 10.9 SSE 4 7 2 4 1019.0 1018.3 0.0
31/04:30pm 26.2 23.0 2.8 22 11.7 SE 9 15 5 8 1019.0 - 0.0
31/04:00pm 26.4 23.7 2.6 21 11.9 S 6 7 3 4 1019.0 1018.3 0.0
31/03:30pm 27.5 23.8 2.6 20 12.5 SSE 11 22 6 12 1018.8 - 0.0
31/03:00pm 26.3 22.1 1.9 20 12.0 ESE 13 24 7 13 1018.9 1018.2 0.0
31/02:30pm 26.5 23.2 2.3 21 12.0 S 9 15 5 8 1019.1 - 0.0
31/02:00pm 26.6 23.3 2.3 20 12.1 SE 9 20 5 11 1019.3 1018.6 0.0
31/01:30pm 27.0 23.4 2.9 21 12.1 SE 11 20 6 11 1019.5 - 0.0
31/01:00pm 26.6 23.4 3.0 21 11.8 SSE 9 19 5 10 1020.0 1019.4 0.0
31/12:30pm 25.9 21.3 3.5 23 11.3 SE 17 41 9 22 1020.7 - 0.0
31/12:00pm 25.8 21.5 3.4 23 11.3 SE 15 26 8 14 1021.2 1020.5 0.0
31/11:30am 25.2 20.1 3.9 25 10.8 SE 20 32 11 17 1021.5 - 0.0
31/11:00am 24.1 19.1 3.8 26 10.2 SE 19 28 10 15 1021.8 1021.2 0.0
31/10:30am 23.1 18.8 5.3 31 9.1 SE 17 24 9 13 1022.1 - 0.0
31/10:00am 21.7 16.9 4.5 32 8.6 SE 19 26 10 14 1022.5 1021.8 0.0
31/09:30am 20.2 15.5 5.1 37 7.6 SE 19 24 10 13 1022.6 - 0.0
31/09:00am 18.9 14.9 4.8 39 6.9 SE 15 20 8 11 1022.6 1021.9 0.0
31/08:30am 18.1 13.8 5.4 43 6.3 SE 17 24 9 13 1022.4 - 0.0
31/08:00am 17.1 - 5.8 47 5.6 - - - - - 1021.9 1021.3 0.0
31/07:30am 15.4 11.6 5.8 52 4.7 ESE 15 20 8 11 1021.7 - 0.0
31/07:00am 13.5 11.3 5.1 57 4.0 ESE 6 9 3 5 1021.5 1020.8 0.0
31/06:30am 11.8 10.5 5.8 66 2.9 E 2 6 1 3 1021.1 - 0.0
31/06:00am 12.1 10.8 6.1 67 2.9 NW 2 2 1 1 1020.8 1020.1 0.0
31/05:30am 12.9 10.6 5.6 61 3.5 SE 7 9 4 5 1020.5 - 0.0
31/05:00am 13.2 11.1 6.0 61 3.5 S 6 13 3 7 1020.2 1019.5 0.0
31/04:30am 13.5 11.9 6.2 61 3.6 N 4 6 2 3 1019.7 - 0.0
31/04:00am 14.3 13.0 5.9 57 4.1 NE 2 4 1 2 1019.7 1019.0 0.0
31/03:30am 13.4 12.1 6.2 61 3.5 SE 2 4 1 2 1019.5 - 0.0
31/03:00am 13.2 12.2 7.3 67 2.9 NE 2 4 1 2 1019.5 1018.8 0.0
31/02:30am 12.9 11.9 7.2 68 2.8 E 2 7 1 4 1019.7 - 0.0
31/02:00am 14.6 12.4 6.4 58 4.1 E 7 7 4 4 1019.7 1019.0 0.0
31/01:30am 14.3 12.8 7.0 61 3.7 N 4 7 2 4 1020.0 - 0.0
31/01:00am 16.0 13.7 7.4 56 4.4 S 9 13 5 7 1020.3 1019.6 0.0
31/12:30am 15.8 14.6 6.4 53 4.7 E 2 6 1 3 1020.3 - 0.0
31/12:00am 16.5 14.2 5.9 49 5.3 S 7 15 4 8 1020.3 1019.6 0.0
 
Date/Time
WST
Temp
°C
App
Temp
°C
Dew
Point
Rel
Hum
%
Delta-T
°C
Wind Press
QNH
hPa
Press
MSL
hPa
Rain
since 9 am
mm
Dir
 
Spd
km/h
Gust
km/h
Spd
kts
Gust
kts
30/11:30pm 17.8 16.3 4.9 42 6.3 NE 2 2 1 1 1020.0 - 0.0
30/11:00pm 16.6 14.8 7.3 54 4.7 NW 6 6 3 3 1020.2 1019.5 0.0
30/10:30pm 17.1 15.6 6.9 51 5.2 NW 4 6 2 3 1020.3 - 0.0
30/10:00pm 17.5 15.9 6.2 47 5.7 NW 4 4 2 2 1020.2 1019.5 0.0
30/09:30pm 18.6 17.5 6.7 46 6.1 NNE 2 6 1 3 1020.0 - 0.0
30/09:00pm 17.9 16.3 7.8 51 5.2 NW 6 7 3 4 1020.3 1019.6 0.0
30/08:30pm 18.4 17.2 8.0 50 5.5 NE 4 6 2 3 1020.2 - 0.0
30/08:00pm 18.8 17.5 7.5 47 5.9 N 4 6 2 3 1020.0 1019.4 0.0
30/07:30pm 19.7 18.6 7.0 43 6.6 N 2 4 1 2 1020.0 - 0.0
30/07:00pm 21.2 19.9 5.8 36 7.9 NE 2 4 1 2 1019.8 1019.1 0.0
30/06:30pm 23.5 21.0 3.6 27 9.9 S 6 9 3 5 1019.7 - 0.0
30/06:00pm 24.2 22.2 4.3 27 10.1 WSW 4 6 2 3 1019.5 1018.8 0.0
30/05:30pm 26.1 23.4 2.7 22 11.7 W 6 7 3 4 1019.4 - 0.0
30/05:00pm 26.8 23.5 2.6 21 12.1 SW 9 19 5 10 1019.1 1018.4 0.0
30/04:30pm 27.1 24.2 2.5 20 12.3 SW 7 15 4 8 1019.1 - 0.0
30/04:00pm 27.3 23.3 2.9 20 12.3 SSW 13 20 7 11 1019.0 1018.3 0.0
30/03:30pm 27.6 24.5 3.4 21 12.3 S 9 20 5 11 1019.0 - 0.0
30/03:00pm 27.4 24.2 3.3 21 12.2 WSW 9 19 5 10 1019.2 1018.5 0.0
30/02:30pm 26.9 23.3 2.9 21 12.1 WSW 11 19 6 10 1019.4 - 0.0
30/02:00pm 27.7 24.1 3.2 20 12.4 S 11 19 6 10 1019.5 1018.8 0.0
30/01:30pm 27.4 23.8 3.2 21 12.3 W 11 20 6 11 1019.8 - 0.0
30/01:00pm 27.3 24.5 3.0 21 12.3 SSW 7 19 4 10 1020.3 1019.6 0.0
30/12:30pm 26.4 23.3 3.7 23 11.6 SSE 9 19 5 10 1020.9 - 0.0
30/12:00pm 26.2 23.5 5.5 26 10.8 SE 9 17 5 9 1021.4 1020.7 0.0
30/11:30am 24.9 22.7 6.4 30 9.8 ESE 7 13 4 7 1021.9 - 0.0
30/11:00am 23.8 21.3 6.4 32 9.1 SE 9 17 5 9 1022.2 1021.6 0.0
30/10:30am 22.5 20.1 6.8 36 8.2 SE 9 15 5 8 1022.6 - 0.0
30/10:00am 21.3 18.9 6.8 39 7.5 SE 9 15 5 8 1022.9 1022.2 0.0
30/09:30am 20.3 17.8 6.7 41 7.0 SE 9 13 5 7 1023.0 - 0.0
30/09:00am 18.4 15.9 6.5 45 6.0 ESE 9 13 5 7 1022.9 1022.2 0.0
30/08:30am 15.5 14.0 6.9 56 4.3 E 4 6 2 3 1022.9 - 0.0
30/08:00am 13.6 12.0 6.4 62 3.5 ESE 4 6 2 3 1022.9 1022.2 0.0
30/07:30am 12.4 11.3 6.9 69 2.7 SE 2 4 1 2 1022.6 - 0.0
30/07:00am 9.8 8.7 6.7 81 1.5 SSW 2 4 1 2 1022.2 1021.6 0.0
30/06:30am 9.8 8.3 6.6 80 1.5 S 4 6 2 3 1021.9 - 0.0
30/06:00am 10.2 9.1 6.8 79 1.6 SW 2 4 1 2 1021.6 1020.9 0.0
30/05:30am 11.2 9.7 6.6 73 2.2 SSE 4 6 2 3 1021.4 - 0.0
30/05:00am 11.3 10.2 6.8 74 2.2 S 2 6 1 3 1021.1 1020.4 0.0
30/04:30am 11.6 10.3 6.1 69 2.6 SSW 2 4 1 2 1020.9 - 0.0
30/04:00am 12.6 11.3 5.8 63 3.3 SE 2 6 1 3 1020.8 1020.1 0.0
30/03:30am 13.0 11.8 6.4 64 3.2 SSE 2 6 1 3 1021.0 - 0.0
30/03:00am 13.8 11.5 5.5 57 4.0 SSE 7 9 4 5 1021.0 1020.3 0.0
30/02:30am 13.9 12.2 6.0 59 3.9 S 4 6 2 3 1021.1 - 0.0
30/02:00am 14.9 12.6 5.7 54 4.5 SE 7 11 4 6 1021.1 1020.4 0.0
30/01:30am 15.8 12.7 5.5 50 5.1 S 11 15 6 8 1021.3 - 0.0
30/01:00am 18.2 15.5 3.9 38 6.9 NE 7 9 4 5 1021.2 1020.5 0.0
30/12:30am 16.5 14.6 4.7 45 5.7 N 4 6 2 3 1021.1 - 0.0
30/12:00am 16.0 14.2 5.3 49 5.2 NE 4 7 2 4 1021.1 1020.4 0.0
 
Date/Time
WST
Temp
°C
App
Temp
°C
Dew
Point
Rel
Hum
%
Delta-T
°C
Wind Press
QNH
hPa
Press
MSL
hPa
Rain
since 9 am
mm
Dir
 
Spd
km/h
Gust
km/h
Spd
kts
Gust
kts
29/11:30pm 16.6 14.7 4.9 46 5.7 ENE 4 7 2 4 1021.3 - 0.0
29/11:00pm 16.5 14.3 5.2 47 5.5 ENE 6 7 3 4 1021.6 1020.9 0.0
29/10:30pm 17.5 15.2 4.8 43 6.2 ENE 6 7 3 4 1021.8 - 0.0

Other Formats:

Comma delimited format used in spreadsheet applications
http://www.bom.gov.au/fwo/IDW60801/IDW60801.99736.axf

JavaScript Object Notation format (JSON) in row-major order
http://www.bom.gov.au/fwo/IDW60801/IDW60801.99736.json